sensor_id;sensor_type;location;lat;lon;timestamp;P1;durP1;ratioP1;P2;durP2;ratioP2
27491;SDS011;14927;51.210;6.838;2023-07-22T00:02:44;10.02;;;7.20;;
27491;SDS011;14927;51.210;6.838;2023-07-22T00:05:28;10.95;;;6.85;;
27491;SDS011;14927;51.210;6.838;2023-07-22T00:08:13;11.85;;;7.47;;
27491;SDS011;14927;51.210;6.838;2023-07-22T00:10:58;10.52;;;7.25;;
27491;SDS011;14927;51.210;6.838;2023-07-22T00:13:43;8.55;;;7.15;;
27491;SDS011;14927;51.210;6.838;2023-07-22T00:16:28;10.70;;;7.68;;
27491;SDS011;14927;51.210;6.838;2023-07-22T00:19:13;8.85;;;7.10;;
27491;SDS011;14927;51.210;6.838;2023-07-22T00:21:58;10.38;;;7.10;;
27491;SDS011;14927;51.210;6.838;2023-07-22T00:24:43;8.20;;;6.80;;
27491;SDS011;14927;51.210;6.838;2023-07-22T00:27:28;10.15;;;7.40;;
27491;SDS011;14927;51.210;6.838;2023-07-22T00:30:13;9.43;;;7.57;;
27491;SDS011;14927;51.210;6.838;2023-07-22T00:32:58;10.10;;;7.00;;
27491;SDS011;14927;51.210;6.838;2023-07-22T00:35:46;10.32;;;7.70;;
27491;SDS011;14927;51.210;6.838;2023-07-22T00:38:34;11.40;;;7.82;;
27491;SDS011;14927;51.210;6.838;2023-07-22T00:41:19;8.80;;;6.80;;
27491;SDS011;14927;51.210;6.838;2023-07-22T00:44:07;9.07;;;7.07;;
27491;SDS011;14927;51.210;6.838;2023-07-22T00:46:53;9.65;;;7.43;;
27491;SDS011;14927;51.210;6.838;2023-07-22T00:49:40;9.07;;;7.00;;
27491;SDS011;14927;51.210;6.838;2023-07-22T00:52:25;10.23;;;7.00;;
27491;SDS011;14927;51.210;6.838;2023-07-22T00:55:10;11.55;;;8.13;;
27491;SDS011;14927;51.210;6.838;2023-07-22T00:58:01;9.70;;;6.88;;
27491;SDS011;14927;51.210;6.838;2023-07-22T01:00:49;9.25;;;6.68;;
27491;SDS011;14927;51.210;6.838;2023-07-22T01:03:34;8.38;;;6.60;;
27491;SDS011;14927;51.210;6.838;2023-07-22T01:06:18;8.43;;;6.78;;
27491;SDS011;14927;51.210;6.838;2023-07-22T01:09:05;10.30;;;6.88;;
27491;SDS011;14927;51.210;6.838;2023-07-22T01:11:50;10.10;;;6.70;;
27491;SDS011;14927;51.210;6.838;2023-07-22T01:14:38;10.45;;;6.78;;
27491;SDS011;14927;51.210;6.838;2023-07-22T01:17:25;10.77;;;7.05;;
27491;SDS011;14927;51.210;6.838;2023-07-22T01:20:10;9.50;;;6.60;;
27491;SDS011;14927;51.210;6.838;2023-07-22T01:22:56;8.77;;;6.13;;
27491;SDS011;14927;51.210;6.838;2023-07-22T01:25:41;9.18;;;5.90;;
27491;SDS011;14927;51.210;6.838;2023-07-22T01:28:27;7.80;;;6.25;;
27491;SDS011;14927;51.210;6.838;2023-07-22T01:31:11;9.95;;;7.18;;
27491;SDS011;14927;51.210;6.838;2023-07-22T01:33:56;8.95;;;6.68;;
27491;SDS011;14927;51.210;6.838;2023-07-22T01:36:42;13.35;;;5.82;;
27491;SDS011;14927;51.210;6.838;2023-07-22T01:39:29;7.97;;;6.00;;
27491;SDS011;14927;51.210;6.838;2023-07-22T01:42:13;8.90;;;6.10;;
27491;SDS011;14927;51.210;6.838;2023-07-22T01:44:58;9.68;;;6.00;;
27491;SDS011;14927;51.210;6.838;2023-07-22T01:47:43;7.75;;;6.10;;
27491;SDS011;14927;51.210;6.838;2023-07-22T01:50:28;10.38;;;6.43;;
27491;SDS011;14927;51.210;6.838;2023-07-22T01:53:13;11.48;;;6.22;;
27491;SDS011;14927;51.210;6.838;2023-07-22T01:55:57;7.97;;;6.00;;
27491;SDS011;14927;51.210;6.838;2023-07-22T01:58:42;8.02;;;6.28;;
27491;SDS011;14927;51.210;6.838;2023-07-22T02:01:27;9.57;;;6.75;;
27491;SDS011;14927;51.210;6.838;2023-07-22T02:04:12;11.73;;;6.50;;
27491;SDS011;14927;51.210;6.838;2023-07-22T02:06:57;9.77;;;7.35;;
27491;SDS011;14927;51.210;6.838;2023-07-22T02:09:42;9.05;;;6.13;;
27491;SDS011;14927;51.210;6.838;2023-07-22T02:12:26;11.10;;;6.38;;
27491;SDS011;14927;51.210;6.838;2023-07-22T02:15:11;8.32;;;6.15;;
27491;SDS011;14927;51.210;6.838;2023-07-22T02:17:56;12.35;;;6.70;;
27491;SDS011;14927;51.210;6.838;2023-07-22T02:20:43;8.75;;;6.05;;
27491;SDS011;14927;51.210;6.838;2023-07-22T02:23:28;7.22;;;5.72;;
27491;SDS011;14927;51.210;6.838;2023-07-22T02:26:12;9.65;;;6.10;;
27491;SDS011;14927;51.210;6.838;2023-07-22T02:28:57;7.88;;;5.97;;
27491;SDS011;14927;51.210;6.838;2023-07-22T02:31:42;11.43;;;6.85;;
27491;SDS011;14927;51.210;6.838;2023-07-22T02:34:27;11.98;;;6.05;;
27491;SDS011;14927;51.210;6.838;2023-07-22T02:37:11;9.57;;;6.57;;
27491;SDS011;14927;51.210;6.838;2023-07-22T02:39:56;8.63;;;5.78;;
27491;SDS011;14927;51.210;6.838;2023-07-22T02:42:41;8.68;;;6.10;;
27491;SDS011;14927;51.210;6.838;2023-07-22T02:45:29;10.70;;;6.18;;
27491;SDS011;14927;51.210;6.838;2023-07-22T02:48:14;8.77;;;6.53;;
27491;SDS011;14927;51.210;6.838;2023-07-22T02:51:08;7.07;;;6.13;;
27491;SDS011;14927;51.210;6.838;2023-07-22T02:53:56;6.65;;;5.93;;
27491;SDS011;14927;51.210;6.838;2023-07-22T02:56:42;9.70;;;6.00;;
27491;SDS011;14927;51.210;6.838;2023-07-22T02:59:26;8.57;;;5.80;;
27491;SDS011;14927;51.210;6.838;2023-07-22T03:02:12;9.25;;;6.50;;
27491;SDS011;14927;51.210;6.838;2023-07-22T03:04:57;9.20;;;6.43;;
27491;SDS011;14927;51.210;6.838;2023-07-22T03:07:42;8.15;;;6.10;;
27491;SDS011;14927;51.210;6.838;2023-07-22T03:10:27;7.72;;;5.50;;
27491;SDS011;14927;51.210;6.838;2023-07-22T03:13:12;8.60;;;6.35;;
27491;SDS011;14927;51.210;6.838;2023-07-22T03:15:57;7.90;;;6.15;;
27491;SDS011;14927;51.210;6.838;2023-07-22T03:18:41;9.43;;;6.05;;
27491;SDS011;14927;51.210;6.838;2023-07-22T03:21:28;7.32;;;6.18;;
27491;SDS011;14927;51.210;6.838;2023-07-22T03:24:13;6.72;;;5.85;;
27491;SDS011;14927;51.210;6.838;2023-07-22T03:26:58;12.07;;;6.25;;
27491;SDS011;14927;51.210;6.838;2023-07-22T03:29:43;7.07;;;5.93;;
27491;SDS011;14927;51.210;6.838;2023-07-22T03:32:27;6.45;;;5.72;;
27491;SDS011;14927;51.210;6.838;2023-07-22T03:35:12;7.30;;;5.65;;
27491;SDS011;14927;51.210;6.838;2023-07-22T03:37:58;6.38;;;5.28;;
27491;SDS011;14927;51.210;6.838;2023-07-22T03:40:42;8.00;;;6.07;;
27491;SDS011;14927;51.210;6.838;2023-07-22T03:43:27;7.90;;;6.10;;
27491;SDS011;14927;51.210;6.838;2023-07-22T03:46:12;9.52;;;5.55;;
27491;SDS011;14927;51.210;6.838;2023-07-22T03:48:58;7.63;;;5.55;;
27491;SDS011;14927;51.210;6.838;2023-07-22T03:51:42;11.40;;;6.20;;
27491;SDS011;14927;51.210;6.838;2023-07-22T03:54:27;11.90;;;5.60;;
27491;SDS011;14927;51.210;6.838;2023-07-22T03:57:12;9.63;;;5.88;;
27491;SDS011;14927;51.210;6.838;2023-07-22T04:00:00;8.63;;;5.78;;
27491;SDS011;14927;51.210;6.838;2023-07-22T04:02:45;6.78;;;5.65;;
27491;SDS011;14927;51.210;6.838;2023-07-22T04:05:29;6.65;;;5.65;;
27491;SDS011;14927;51.210;6.838;2023-07-22T04:08:14;10.07;;;5.90;;
27491;SDS011;14927;51.210;6.838;2023-07-22T04:10:59;8.63;;;5.95;;
27491;SDS011;14927;51.210;6.838;2023-07-22T04:13:44;8.55;;;5.93;;
27491;SDS011;14927;51.210;6.838;2023-07-22T04:16:29;8.95;;;5.68;;
27491;SDS011;14927;51.210;6.838;2023-07-22T04:19:14;7.68;;;6.00;;
27491;SDS011;14927;51.210;6.838;2023-07-22T04:22:01;9.82;;;6.13;;
27491;SDS011;14927;51.210;6.838;2023-07-22T04:24:48;6.80;;;5.68;;
27491;SDS011;14927;51.210;6.838;2023-07-22T04:27:33;8.50;;;6.40;;
27491;SDS011;14927;51.210;6.838;2023-07-22T04:30:18;7.82;;;5.32;;
27491;SDS011;14927;51.210;6.838;2023-07-22T04:33:04;8.90;;;5.70;;
27491;SDS011;14927;51.210;6.838;2023-07-22T04:35:49;8.23;;;6.07;;
27491;SDS011;14927;51.210;6.838;2023-07-22T04:38:33;8.90;;;6.07;;
27491;SDS011;14927;51.210;6.838;2023-07-22T04:41:19;13.40;;;6.35;;
27491;SDS011;14927;51.210;6.838;2023-07-22T04:44:04;8.68;;;5.93;;
27491;SDS011;14927;51.210;6.838;2023-07-22T04:46:48;11.10;;;6.45;;
27491;SDS011;14927;51.210;6.838;2023-07-22T04:49:34;8.32;;;5.78;;
27491;SDS011;14927;51.210;6.838;2023-07-22T04:52:18;10.57;;;7.15;;
27491;SDS011;14927;51.210;6.838;2023-07-22T04:55:03;11.23;;;7.10;;
27491;SDS011;14927;51.210;6.838;2023-07-22T04:57:52;11.00;;;7.10;;
27491;SDS011;14927;51.210;6.838;2023-07-22T05:00:37;13.85;;;7.57;;
27491;SDS011;14927;51.210;6.838;2023-07-22T05:03:22;11.50;;;7.50;;
27491;SDS011;14927;51.210;6.838;2023-07-22T05:06:09;8.75;;;6.78;;
27491;SDS011;14927;51.210;6.838;2023-07-22T05:08:53;10.75;;;7.35;;
27491;SDS011;14927;51.210;6.838;2023-07-22T05:11:38;10.18;;;7.03;;
27491;SDS011;14927;51.210;6.838;2023-07-22T05:14:23;12.32;;;7.10;;
27491;SDS011;14927;51.210;6.838;2023-07-22T05:17:07;10.75;;;7.00;;
27491;SDS011;14927;51.210;6.838;2023-07-22T05:19:52;10.85;;;7.50;;
27491;SDS011;14927;51.210;6.838;2023-07-22T05:22:37;9.73;;;6.45;;
27491;SDS011;14927;51.210;6.838;2023-07-22T05:25:22;11.05;;;7.53;;
27491;SDS011;14927;51.210;6.838;2023-07-22T05:28:06;12.73;;;7.07;;
27491;SDS011;14927;51.210;6.838;2023-07-22T05:30:51;9.15;;;7.30;;
27491;SDS011;14927;51.210;6.838;2023-07-22T05:33:35;9.93;;;6.72;;
27491;SDS011;14927;51.210;6.838;2023-07-22T05:36:21;16.55;;;8.07;;
27491;SDS011;14927;51.210;6.838;2023-07-22T05:39:05;10.63;;;6.95;;
27491;SDS011;14927;51.210;6.838;2023-07-22T05:41:51;9.73;;;7.30;;
27491;SDS011;14927;51.210;6.838;2023-07-22T05:44:36;12.25;;;8.25;;
27491;SDS011;14927;51.210;6.838;2023-07-22T05:47:21;8.93;;;6.57;;
27491;SDS011;14927;51.210;6.838;2023-07-22T05:50:06;11.43;;;7.38;;
27491;SDS011;14927;51.210;6.838;2023-07-22T05:52:51;15.10;;;6.78;;
27491;SDS011;14927;51.210;6.838;2023-07-22T05:55:36;11.95;;;7.30;;
27491;SDS011;14927;51.210;6.838;2023-07-22T05:58:20;14.13;;;7.30;;
27491;SDS011;14927;51.210;6.838;2023-07-22T06:01:05;9.80;;;6.68;;
27491;SDS011;14927;51.210;6.838;2023-07-22T06:03:50;9.48;;;6.63;;
27491;SDS011;14927;51.210;6.838;2023-07-22T06:06:36;8.27;;;6.22;;
27491;SDS011;14927;51.210;6.838;2023-07-22T06:09:20;10.35;;;7.15;;
27491;SDS011;14927;51.210;6.838;2023-07-22T06:12:05;10.10;;;6.90;;
27491;SDS011;14927;51.210;6.838;2023-07-22T06:14:50;11.77;;;6.15;;
27491;SDS011;14927;51.210;6.838;2023-07-22T06:17:35;8.55;;;5.97;;
27491;SDS011;14927;51.210;6.838;2023-07-22T06:20:19;10.27;;;5.53;;
27491;SDS011;14927;51.210;6.838;2023-07-22T06:23:04;10.68;;;5.82;;
27491;SDS011;14927;51.210;6.838;2023-07-22T06:25:49;7.53;;;5.85;;
27491;SDS011;14927;51.210;6.838;2023-07-22T06:28:34;9.27;;;5.47;;
27491;SDS011;14927;51.210;6.838;2023-07-22T06:31:19;5.75;;;4.82;;
27491;SDS011;14927;51.210;6.838;2023-07-22T06:34:03;8.40;;;5.50;;
27491;SDS011;14927;51.210;6.838;2023-07-22T06:36:48;7.93;;;5.45;;
27491;SDS011;14927;51.210;6.838;2023-07-22T06:39:33;11.48;;;5.22;;
27491;SDS011;14927;51.210;6.838;2023-07-22T06:42:18;9.55;;;5.47;;
27491;SDS011;14927;51.210;6.838;2023-07-22T06:45:02;7.03;;;4.88;;
27491;SDS011;14927;51.210;6.838;2023-07-22T06:47:48;7.75;;;5.50;;
27491;SDS011;14927;51.210;6.838;2023-07-22T06:50:33;6.88;;;5.30;;
27491;SDS011;14927;51.210;6.838;2023-07-22T06:53:18;8.18;;;5.30;;
27491;SDS011;14927;51.210;6.838;2023-07-22T06:56:03;9.57;;;5.63;;
27491;SDS011;14927;51.210;6.838;2023-07-22T06:58:48;6.95;;;5.55;;
27491;SDS011;14927;51.210;6.838;2023-07-22T07:01:34;7.07;;;6.00;;
27491;SDS011;14927;51.210;6.838;2023-07-22T07:04:19;9.68;;;5.75;;
27491;SDS011;14927;51.210;6.838;2023-07-22T07:07:03;7.93;;;5.65;;
27491;SDS011;14927;51.210;6.838;2023-07-22T07:09:48;7.65;;;5.32;;
27491;SDS011;14927;51.210;6.838;2023-07-22T07:12:33;12.40;;;6.55;;
27491;SDS011;14927;51.210;6.838;2023-07-22T07:15:17;7.70;;;5.55;;
27491;SDS011;14927;51.210;6.838;2023-07-22T07:18:02;8.77;;;5.97;;
27491;SDS011;14927;51.210;6.838;2023-07-22T07:20:47;8.00;;;5.80;;
27491;SDS011;14927;51.210;6.838;2023-07-22T07:23:34;9.52;;;5.40;;
27491;SDS011;14927;51.210;6.838;2023-07-22T07:26:18;10.48;;;5.30;;
27491;SDS011;14927;51.210;6.838;2023-07-22T07:29:04;12.85;;;5.80;;
27491;SDS011;14927;51.210;6.838;2023-07-22T07:31:49;8.85;;;5.75;;
27491;SDS011;14927;51.210;6.838;2023-07-22T07:34:33;9.75;;;6.07;;
27491;SDS011;14927;51.210;6.838;2023-07-22T07:37:18;6.18;;;5.18;;
27491;SDS011;14927;51.210;6.838;2023-07-22T07:40:02;6.90;;;5.10;;
27491;SDS011;14927;51.210;6.838;2023-07-22T07:42:48;7.13;;;5.50;;
27491;SDS011;14927;51.210;6.838;2023-07-22T07:45:32;9.45;;;5.43;;
27491;SDS011;14927;51.210;6.838;2023-07-22T07:48:17;6.82;;;5.30;;
27491;SDS011;14927;51.210;6.838;2023-07-22T07:51:02;5.93;;;4.97;;
27491;SDS011;14927;51.210;6.838;2023-07-22T07:53:47;6.95;;;5.60;;
27491;SDS011;14927;51.210;6.838;2023-07-22T07:56:32;8.57;;;5.30;;
27491;SDS011;14927;51.210;6.838;2023-07-22T07:59:17;11.75;;;5.70;;
27491;SDS011;14927;51.210;6.838;2023-07-22T08:02:01;8.68;;;6.07;;
27491;SDS011;14927;51.210;6.838;2023-07-22T08:04:48;12.82;;;6.25;;
27491;SDS011;14927;51.210;6.838;2023-07-22T08:07:33;9.55;;;6.05;;
27491;SDS011;14927;51.210;6.838;2023-07-22T08:10:17;9.40;;;6.55;;
27491;SDS011;14927;51.210;6.838;2023-07-22T08:13:02;9.35;;;6.65;;
27491;SDS011;14927;51.210;6.838;2023-07-22T08:15:46;7.43;;;6.03;;
27491;SDS011;14927;51.210;6.838;2023-07-22T08:18:31;7.30;;;6.30;;
27491;SDS011;14927;51.210;6.838;2023-07-22T08:21:16;9.13;;;6.47;;
27491;SDS011;14927;51.210;6.838;2023-07-22T08:24:01;7.90;;;6.05;;
27491;SDS011;14927;51.210;6.838;2023-07-22T08:26:46;9.02;;;6.32;;
27491;SDS011;14927;51.210;6.838;2023-07-22T08:29:30;8.98;;;5.63;;
27491;SDS011;14927;51.210;6.838;2023-07-22T08:32:16;8.05;;;6.45;;
27491;SDS011;14927;51.210;6.838;2023-07-22T08:35:00;10.68;;;6.43;;
27491;SDS011;14927;51.210;6.838;2023-07-22T08:37:45;9.13;;;6.95;;
27491;SDS011;14927;51.210;6.838;2023-07-22T08:40:34;12.52;;;6.97;;
27491;SDS011;14927;51.210;6.838;2023-07-22T08:43:23;10.38;;;5.68;;
27491;SDS011;14927;51.210;6.838;2023-07-22T08:46:07;7.65;;;5.72;;
27491;SDS011;14927;51.210;6.838;2023-07-22T08:48:53;12.10;;;6.13;;
27491;SDS011;14927;51.210;6.838;2023-07-22T08:51:44;7.55;;;5.63;;
27491;SDS011;14927;51.210;6.838;2023-07-22T08:54:41;9.95;;;6.03;;
27491;SDS011;14927;51.210;6.838;2023-07-22T08:57:28;6.32;;;5.35;;
27491;SDS011;14927;51.210;6.838;2023-07-22T09:00:14;7.18;;;5.00;;
27491;SDS011;14927;51.210;6.838;2023-07-22T09:03:00;7.53;;;4.85;;
27491;SDS011;14927;51.210;6.838;2023-07-22T09:05:45;7.18;;;5.35;;
27491;SDS011;14927;51.210;6.838;2023-07-22T09:08:31;7.75;;;5.60;;
27491;SDS011;14927;51.210;6.838;2023-07-22T09:11:18;8.13;;;4.45;;
27491;SDS011;14927;51.210;6.838;2023-07-22T09:14:03;6.78;;;5.10;;
27491;SDS011;14927;51.210;6.838;2023-07-22T09:16:48;6.28;;;4.90;;
27491;SDS011;14927;51.210;6.838;2023-07-22T09:19:33;5.05;;;4.30;;
27491;SDS011;14927;51.210;6.838;2023-07-22T09:22:18;10.23;;;4.55;;
27491;SDS011;14927;51.210;6.838;2023-07-22T09:28:10;6.05;;;4.07;;
27491;SDS011;14927;51.210;6.838;2023-07-22T09:31:02;5.75;;;4.38;;
27491;SDS011;14927;51.210;6.838;2023-07-22T09:33:47;6.25;;;4.30;;
27491;SDS011;14927;51.210;6.838;2023-07-22T09:36:32;9.98;;;4.00;;
27491;SDS011;14927;51.210;6.838;2023-07-22T09:39:47;5.78;;;3.78;;
27491;SDS011;14927;51.210;6.838;2023-07-22T09:42:33;3.92;;;3.30;;
27491;SDS011;14927;51.210;6.838;2023-07-22T09:45:18;4.50;;;3.53;;
27491;SDS011;14927;51.210;6.838;2023-07-22T09:48:06;2.60;;;2.00;;
27491;SDS011;14927;51.210;6.838;2023-07-22T09:50:56;2.80;;;2.45;;
27491;SDS011;14927;51.210;6.838;2023-07-22T09:53:44;2.35;;;2.15;;
27491;SDS011;14927;51.210;6.838;2023-07-22T09:56:45;4.70;;;2.53;;
27491;SDS011;14927;51.210;6.838;2023-07-22T09:59:38;5.53;;;2.67;;
27491;SDS011;14927;51.210;6.838;2023-07-22T10:02:23;2.42;;;1.90;;
27491;SDS011;14927;51.210;6.838;2023-07-22T10:05:14;10.43;;;2.17;;
27491;SDS011;14927;51.210;6.838;2023-07-22T10:08:01;5.15;;;2.15;;
27491;SDS011;14927;51.210;6.838;2023-07-22T10:10:54;2.78;;;2.22;;
27491;SDS011;14927;51.210;6.838;2023-07-22T10:14:01;6.38;;;2.20;;
27491;SDS011;14927;51.210;6.838;2023-07-22T10:17:00;3.53;;;1.88;;
27491;SDS011;14927;51.210;6.838;2023-07-22T10:20:04;3.13;;;2.00;;
27491;SDS011;14927;51.210;6.838;2023-07-22T10:22:54;4.78;;;2.25;;
27491;SDS011;14927;51.210;6.838;2023-07-22T10:25:52;4.13;;;2.78;;
27491;SDS011;14927;51.210;6.838;2023-07-22T10:28:38;4.95;;;2.70;;
27491;SDS011;14927;51.210;6.838;2023-07-22T10:31:24;10.23;;;2.50;;
27491;SDS011;14927;51.210;6.838;2023-07-22T10:34:09;7.00;;;2.60;;
27491;SDS011;14927;51.210;6.838;2023-07-22T10:36:55;5.30;;;2.22;;
27491;SDS011;14927;51.210;6.838;2023-07-22T10:39:44;2.65;;;2.38;;
27491;SDS011;14927;51.210;6.838;2023-07-22T10:42:29;2.58;;;2.25;;
27491;SDS011;14927;51.210;6.838;2023-07-22T10:45:28;4.18;;;2.30;;
27491;SDS011;14927;51.210;6.838;2023-07-22T10:48:25;3.90;;;2.22;;
27491;SDS011;14927;51.210;6.838;2023-07-22T10:51:18;5.93;;;1.90;;
27491;SDS011;14927;51.210;6.838;2023-07-22T10:54:02;2.40;;;2.13;;
27491;SDS011;14927;51.210;6.838;2023-07-22T10:56:54;2.70;;;1.90;;
27491;SDS011;14927;51.210;6.838;2023-07-22T10:59:41;3.55;;;2.00;;
27491;SDS011;14927;51.210;6.838;2023-07-22T11:02:33;2.65;;;2.08;;
27491;SDS011;14927;51.210;6.838;2023-07-22T11:05:18;3.03;;;1.90;;
27491;SDS011;14927;51.210;6.838;2023-07-22T11:08:03;5.25;;;1.75;;
27491;SDS011;14927;51.210;6.838;2023-07-22T11:10:54;2.45;;;1.58;;
27491;SDS011;14927;51.210;6.838;2023-07-22T11:13:38;6.05;;;1.70;;
27491;SDS011;14927;51.210;6.838;2023-07-22T11:16:25;2.72;;;1.77;;
27491;SDS011;14927;51.210;6.838;2023-07-22T11:19:13;2.28;;;1.50;;
27491;SDS011;14927;51.210;6.838;2023-07-22T11:21:59;3.60;;;1.85;;
27491;SDS011;14927;51.210;6.838;2023-07-22T11:24:44;2.80;;;1.50;;
27491;SDS011;14927;51.210;6.838;2023-07-22T11:27:29;2.78;;;1.75;;
27491;SDS011;14927;51.210;6.838;2023-07-22T11:30:14;2.58;;;1.52;;
27491;SDS011;14927;51.210;6.838;2023-07-22T11:32:59;1.70;;;1.25;;
27491;SDS011;14927;51.210;6.838;2023-07-22T11:35:44;3.75;;;1.42;;
27491;SDS011;14927;51.210;6.838;2023-07-22T11:38:29;2.65;;;1.60;;
27491;SDS011;14927;51.210;6.838;2023-07-22T11:41:13;1.63;;;1.52;;
27491;SDS011;14927;51.210;6.838;2023-07-22T11:43:59;4.10;;;2.17;;
27491;SDS011;14927;51.210;6.838;2023-07-22T11:49:51;7.50;;;1.60;;
27491;SDS011;14927;51.210;6.838;2023-07-22T11:52:36;2.67;;;1.67;;
27491;SDS011;14927;51.210;6.838;2023-07-22T11:55:22;4.78;;;2.00;;
27491;SDS011;14927;51.210;6.838;2023-07-22T11:58:08;3.33;;;1.88;;
27491;SDS011;14927;51.210;6.838;2023-07-22T12:01:03;2.83;;;1.60;;
27491;SDS011;14927;51.210;6.838;2023-07-22T12:03:54;4.22;;;1.92;;
27491;SDS011;14927;51.210;6.838;2023-07-22T12:06:40;4.15;;;1.90;;
27491;SDS011;14927;51.210;6.838;2023-07-22T12:09:25;3.95;;;1.92;;
27491;SDS011;14927;51.210;6.838;2023-07-22T12:12:10;1.98;;;1.65;;
27491;SDS011;14927;51.210;6.838;2023-07-22T12:14:55;2.20;;;1.70;;
27491;SDS011;14927;51.210;6.838;2023-07-22T12:18:04;2.42;;;1.98;;
27491;SDS011;14927;51.210;6.838;2023-07-22T12:20:49;6.15;;;1.90;;
27491;SDS011;14927;51.210;6.838;2023-07-22T12:23:34;3.53;;;1.90;;
27491;SDS011;14927;51.210;6.838;2023-07-22T12:26:20;1.70;;;1.60;;
27491;SDS011;14927;51.210;6.838;2023-07-22T12:29:05;4.93;;;1.98;;
27491;SDS011;14927;51.210;6.838;2023-07-22T12:31:49;5.40;;;2.75;;
27491;SDS011;14927;51.210;6.838;2023-07-22T12:34:34;4.28;;;2.10;;
27491;SDS011;14927;51.210;6.838;2023-07-22T12:37:20;5.70;;;1.90;;
27491;SDS011;14927;51.210;6.838;2023-07-22T12:40:05;3.83;;;1.92;;
27491;SDS011;14927;51.210;6.838;2023-07-22T12:42:52;3.92;;;2.05;;
27491;SDS011;14927;51.210;6.838;2023-07-22T12:45:36;3.28;;;2.00;;
27491;SDS011;14927;51.210;6.838;2023-07-22T12:48:21;3.70;;;2.13;;
27491;SDS011;14927;51.210;6.838;2023-07-22T12:51:08;4.40;;;2.33;;
27491;SDS011;14927;51.210;6.838;2023-07-22T12:53:53;4.82;;;2.47;;
27491;SDS011;14927;51.210;6.838;2023-07-22T12:56:38;1.83;;;1.70;;
27491;SDS011;14927;51.210;6.838;2023-07-22T12:59:23;1.95;;;1.83;;
27491;SDS011;14927;51.210;6.838;2023-07-22T13:02:07;3.10;;;2.20;;
27491;SDS011;14927;51.210;6.838;2023-07-22T13:04:52;3.60;;;1.92;;
27491;SDS011;14927;51.210;6.838;2023-07-22T13:07:37;2.15;;;1.58;;
27491;SDS011;14927;51.210;6.838;2023-07-22T13:10:22;2.53;;;1.70;;
27491;SDS011;14927;51.210;6.838;2023-07-22T13:13:09;2.15;;;1.38;;
27491;SDS011;14927;51.210;6.838;2023-07-22T13:15:54;6.80;;;1.70;;
27491;SDS011;14927;51.210;6.838;2023-07-22T13:18:39;2.40;;;1.80;;
27491;SDS011;14927;51.210;6.838;2023-07-22T13:21:23;2.15;;;1.38;;
27491;SDS011;14927;51.210;6.838;2023-07-22T13:24:08;4.20;;;1.90;;
27491;SDS011;14927;51.210;6.838;2023-07-22T13:26:53;4.78;;;1.77;;
27491;SDS011;14927;51.210;6.838;2023-07-22T13:29:37;2.97;;;1.40;;
27491;SDS011;14927;51.210;6.838;2023-07-22T13:32:22;4.95;;;1.65;;
27491;SDS011;14927;51.210;6.838;2023-07-22T13:35:07;3.70;;;1.50;;
27491;SDS011;14927;51.210;6.838;2023-07-22T13:37:53;3.05;;;1.83;;
27491;SDS011;14927;51.210;6.838;2023-07-22T13:40:37;2.33;;;1.90;;
27491;SDS011;14927;51.210;6.838;2023-07-22T13:43:22;3.80;;;1.90;;
27491;SDS011;14927;51.210;6.838;2023-07-22T13:46:07;2.50;;;1.90;;
27491;SDS011;14927;51.210;6.838;2023-07-22T13:48:52;2.00;;;1.67;;
27491;SDS011;14927;51.210;6.838;2023-07-22T13:51:36;2.97;;;1.90;;
27491;SDS011;14927;51.210;6.838;2023-07-22T13:54:21;2.75;;;1.70;;
27491;SDS011;14927;51.210;6.838;2023-07-22T13:57:06;4.70;;;1.90;;
27491;SDS011;14927;51.210;6.838;2023-07-22T13:59:51;1.77;;;1.67;;
27491;SDS011;14927;51.210;6.838;2023-07-22T14:02:37;2.70;;;1.90;;
27491;SDS011;14927;51.210;6.838;2023-07-22T14:05:22;2.83;;;1.83;;
27491;SDS011;14927;51.210;6.838;2023-07-22T14:08:07;3.05;;;2.00;;
27491;SDS011;14927;51.210;6.838;2023-07-22T14:10:51;2.20;;;1.98;;
27491;SDS011;14927;51.210;6.838;2023-07-22T14:13:37;3.25;;;2.20;;
27491;SDS011;14927;51.210;6.838;2023-07-22T14:16:21;4.75;;;2.40;;
27491;SDS011;14927;51.210;6.838;2023-07-22T14:19:06;3.15;;;1.83;;
27491;SDS011;14927;51.210;6.838;2023-07-22T14:21:51;2.65;;;2.00;;
27491;SDS011;14927;51.210;6.838;2023-07-22T14:24:36;2.30;;;2.10;;
27491;SDS011;14927;51.210;6.838;2023-07-22T14:27:20;4.20;;;2.20;;
27491;SDS011;14927;51.210;6.838;2023-07-22T14:30:06;5.50;;;2.50;;
27491;SDS011;14927;51.210;6.838;2023-07-22T14:32:51;5.90;;;2.13;;
27491;SDS011;14927;51.210;6.838;2023-07-22T14:35:36;4.45;;;2.45;;
27491;SDS011;14927;51.210;6.838;2023-07-22T14:38:21;5.30;;;2.40;;
27491;SDS011;14927;51.210;6.838;2023-07-22T14:41:05;3.58;;;2.08;;
27491;SDS011;14927;51.210;6.838;2023-07-22T14:43:50;4.40;;;2.58;;
27491;SDS011;14927;51.210;6.838;2023-07-22T14:46:35;2.65;;;1.90;;
27491;SDS011;14927;51.210;6.838;2023-07-22T14:49:19;17.48;;;2.72;;
27491;SDS011;14927;51.210;6.838;2023-07-22T14:52:04;5.35;;;2.20;;
27491;SDS011;14927;51.210;6.838;2023-07-22T14:54:49;5.00;;;2.50;;
27491;SDS011;14927;51.210;6.838;2023-07-22T14:57:34;6.18;;;2.10;;
27491;SDS011;14927;51.210;6.838;2023-07-22T15:00:19;3.97;;;2.13;;
27491;SDS011;14927;51.210;6.838;2023-07-22T15:03:03;3.30;;;2.50;;
27491;SDS011;14927;51.210;6.838;2023-07-22T15:05:48;3.67;;;2.17;;
27491;SDS011;14927;51.210;6.838;2023-07-22T15:08:33;6.38;;;2.38;;
27491;SDS011;14927;51.210;6.838;2023-07-22T15:11:17;4.55;;;2.00;;
27491;SDS011;14927;51.210;6.838;2023-07-22T15:14:03;4.03;;;2.25;;
27491;SDS011;14927;51.210;6.838;2023-07-22T15:16:48;4.65;;;1.77;;
27491;SDS011;14927;51.210;6.838;2023-07-22T15:19:33;4.40;;;1.70;;
27491;SDS011;14927;51.210;6.838;2023-07-22T15:22:17;4.95;;;2.30;;
27491;SDS011;14927;51.210;6.838;2023-07-22T15:25:03;6.82;;;2.05;;
27491;SDS011;14927;51.210;6.838;2023-07-22T15:27:48;7.10;;;1.90;;
27491;SDS011;14927;51.210;6.838;2023-07-22T15:30:33;2.88;;;1.92;;
27491;SDS011;14927;51.210;6.838;2023-07-22T15:33:18;3.90;;;1.90;;
27491;SDS011;14927;51.210;6.838;2023-07-22T15:36:03;4.40;;;1.88;;
27491;SDS011;14927;51.210;6.838;2023-07-22T15:38:48;2.65;;;1.70;;
27491;SDS011;14927;51.210;6.838;2023-07-22T15:41:33;1.95;;;1.50;;
27491;SDS011;14927;51.210;6.838;2023-07-22T15:44:18;3.42;;;1.70;;
27491;SDS011;14927;51.210;6.838;2023-07-22T15:47:02;4.65;;;1.50;;
27491;SDS011;14927;51.210;6.838;2023-07-22T15:49:48;3.78;;;1.90;;
27491;SDS011;14927;51.210;6.838;2023-07-22T15:52:32;6.25;;;2.35;;
27491;SDS011;14927;51.210;6.838;2023-07-22T15:55:17;2.22;;;1.80;;
27491;SDS011;14927;51.210;6.838;2023-07-22T15:58:03;5.30;;;1.80;;
27491;SDS011;14927;51.210;6.838;2023-07-22T16:00:47;4.95;;;1.52;;
27491;SDS011;14927;51.210;6.838;2023-07-22T16:03:32;2.05;;;1.70;;
27491;SDS011;14927;51.210;6.838;2023-07-22T16:06:20;3.83;;;1.70;;
27491;SDS011;14927;51.210;6.838;2023-07-22T16:09:05;3.85;;;2.03;;
27491;SDS011;14927;51.210;6.838;2023-07-22T16:11:51;2.70;;;1.80;;
27491;SDS011;14927;51.210;6.838;2023-07-22T16:14:36;2.88;;;1.90;;
27491;SDS011;14927;51.210;6.838;2023-07-22T16:17:21;3.47;;;1.75;;
27491;SDS011;14927;51.210;6.838;2023-07-22T16:20:06;7.75;;;1.95;;
27491;SDS011;14927;51.210;6.838;2023-07-22T16:22:53;3.47;;;2.08;;
27491;SDS011;14927;51.210;6.838;2023-07-22T16:25:38;2.33;;;1.80;;
27491;SDS011;14927;51.210;6.838;2023-07-22T16:28:22;4.22;;;2.45;;
27491;SDS011;14927;51.210;6.838;2023-07-22T16:31:07;4.82;;;2.38;;
27491;SDS011;14927;51.210;6.838;2023-07-22T16:33:52;6.40;;;2.38;;
27491;SDS011;14927;51.210;6.838;2023-07-22T16:36:39;4.60;;;2.92;;
27491;SDS011;14927;51.210;6.838;2023-07-22T16:39:24;4.13;;;2.35;;
27491;SDS011;14927;51.210;6.838;2023-07-22T16:42:09;4.13;;;2.38;;
27491;SDS011;14927;51.210;6.838;2023-07-22T16:44:53;3.33;;;2.38;;